sensor_id;sensor_type;location;lat;lon;timestamp;P1;durP1;ratioP1;P2;durP2;ratioP2
23068;SDS011;11702;50.856;4.348;2022-07-29T00:00:05;6.78;;;2.08;;
23068;SDS011;11702;50.856;4.348;2022-07-29T00:02:33;5.28;;;1.80;;
23068;SDS011;11702;50.856;4.348;2022-07-29T00:04:58;6.43;;;1.70;;
23068;SDS011;11702;50.856;4.348;2022-07-29T00:07:24;10.75;;;2.15;;
23068;SDS011;11702;50.856;4.348;2022-07-29T00:09:50;5.05;;;1.95;;
23068;SDS011;11702;50.856;4.348;2022-07-29T00:12:16;4.45;;;1.88;;
23068;SDS011;11702;50.856;4.348;2022-07-29T00:14:42;4.45;;;1.90;;
23068;SDS011;11702;50.856;4.348;2022-07-29T00:17:07;8.90;;;2.17;;
23068;SDS011;11702;50.856;4.348;2022-07-29T00:19:33;4.65;;;2.00;;
23068;SDS011;11702;50.856;4.348;2022-07-29T00:21:59;5.03;;;2.00;;
23068;SDS011;11702;50.856;4.348;2022-07-29T00:24:25;5.45;;;2.03;;
23068;SDS011;11702;50.856;4.348;2022-07-29T00:26:51;6.70;;;1.92;;
23068;SDS011;11702;50.856;4.348;2022-07-29T00:29:17;6.22;;;2.00;;
23068;SDS011;11702;50.856;4.348;2022-07-29T00:31:42;7.30;;;2.20;;
23068;SDS011;11702;50.856;4.348;2022-07-29T00:34:08;6.10;;;2.08;;
23068;SDS011;11702;50.856;4.348;2022-07-29T00:36:54;9.43;;;2.58;;
23068;SDS011;11702;50.856;4.348;2022-07-29T00:39:19;6.30;;;2.05;;
23068;SDS011;11702;50.856;4.348;2022-07-29T00:41:45;8.85;;;1.88;;
23068;SDS011;11702;50.856;4.348;2022-07-29T00:44:10;6.40;;;2.20;;
23068;SDS011;11702;50.856;4.348;2022-07-29T00:46:36;5.78;;;2.30;;
23068;SDS011;11702;50.856;4.348;2022-07-29T00:49:02;7.50;;;2.30;;
23068;SDS011;11702;50.856;4.348;2022-07-29T00:51:27;7.90;;;1.75;;
23068;SDS011;11702;50.856;4.348;2022-07-29T00:53:54;8.32;;;2.10;;
23068;SDS011;11702;50.856;4.348;2022-07-29T00:56:21;8.52;;;2.05;;
23068;SDS011;11702;50.856;4.348;2022-07-29T00:58:46;7.93;;;2.20;;
23068;SDS011;11702;50.856;4.348;2022-07-29T01:01:13;9.10;;;1.88;;
23068;SDS011;11702;50.856;4.348;2022-07-29T01:03:38;6.35;;;2.10;;
23068;SDS011;11702;50.856;4.348;2022-07-29T01:06:04;10.02;;;1.85;;
23068;SDS011;11702;50.856;4.348;2022-07-29T01:08:31;6.80;;;2.10;;
23068;SDS011;11702;50.856;4.348;2022-07-29T01:10:58;5.72;;;2.20;;
23068;SDS011;11702;50.856;4.348;2022-07-29T01:13:26;4.90;;;1.80;;
23068;SDS011;11702;50.856;4.348;2022-07-29T01:16:03;6.30;;;2.28;;
23068;SDS011;11702;50.856;4.348;2022-07-29T01:18:41;4.05;;;2.03;;
23068;SDS011;11702;50.856;4.348;2022-07-29T01:27:32;7.68;;;2.50;;
23068;SDS011;11702;50.856;4.348;2022-07-29T01:30:09;5.18;;;2.08;;
23068;SDS011;11702;50.856;4.348;2022-07-29T01:32:36;4.93;;;2.00;;
23068;SDS011;11702;50.856;4.348;2022-07-29T01:40:22;5.75;;;1.95;;
23068;SDS011;11702;50.856;4.348;2022-07-29T01:42:59;5.95;;;1.73;;
23068;SDS011;11702;50.856;4.348;2022-07-29T01:45:41;7.65;;;2.03;;
23068;SDS011;11702;50.856;4.348;2022-07-29T01:48:13;3.70;;;1.70;;
23068;SDS011;11702;50.856;4.348;2022-07-29T01:50:53;9.05;;;1.90;;
23068;SDS011;11702;50.856;4.348;2022-07-29T01:53:31;4.18;;;1.90;;
23068;SDS011;11702;50.856;4.348;2022-07-29T01:56:13;6.32;;;1.90;;
23068;SDS011;11702;50.856;4.348;2022-07-29T01:58:42;7.15;;;2.63;;
23068;SDS011;11702;50.856;4.348;2022-07-29T02:01:10;5.55;;;1.88;;
23068;SDS011;11702;50.856;4.348;2022-07-29T02:03:38;5.03;;;2.13;;
23068;SDS011;11702;50.856;4.348;2022-07-29T02:06:08;6.82;;;2.10;;
23068;SDS011;11702;50.856;4.348;2022-07-29T02:08:35;5.22;;;1.90;;
23068;SDS011;11702;50.856;4.348;2022-07-29T02:11:03;10.45;;;2.25;;
23068;SDS011;11702;50.856;4.348;2022-07-29T02:13:32;7.00;;;2.00;;
23068;SDS011;11702;50.856;4.348;2022-07-29T02:16:00;4.13;;;2.00;;
23068;SDS011;11702;50.856;4.348;2022-07-29T02:18:28;6.68;;;2.05;;
23068;SDS011;11702;50.856;4.348;2022-07-29T02:20:56;4.72;;;2.20;;
23068;SDS011;11702;50.856;4.348;2022-07-29T02:23:24;7.50;;;1.92;;
23068;SDS011;11702;50.856;4.348;2022-07-29T02:25:51;5.10;;;2.47;;
23068;SDS011;11702;50.856;4.348;2022-07-29T02:28:19;3.38;;;1.90;;
23068;SDS011;11702;50.856;4.348;2022-07-29T02:30:49;8.50;;;2.40;;
23068;SDS011;11702;50.856;4.348;2022-07-29T02:33:18;5.65;;;2.10;;
23068;SDS011;11702;50.856;4.348;2022-07-29T02:35:46;4.40;;;2.10;;
23068;SDS011;11702;50.856;4.348;2022-07-29T02:38:14;4.22;;;2.17;;
23068;SDS011;11702;50.856;4.348;2022-07-29T02:41:00;4.20;;;1.65;;
23068;SDS011;11702;50.856;4.348;2022-07-29T02:43:29;9.98;;;2.17;;
23068;SDS011;11702;50.856;4.348;2022-07-29T02:45:57;12.70;;;2.25;;
23068;SDS011;11702;50.856;4.348;2022-07-29T02:48:32;3.40;;;2.13;;
23068;SDS011;11702;50.856;4.348;2022-07-29T02:51:07;6.43;;;1.90;;
23068;SDS011;11702;50.856;4.348;2022-07-29T02:53:37;6.68;;;2.05;;
23068;SDS011;11702;50.856;4.348;2022-07-29T02:56:08;4.80;;;2.05;;
23068;SDS011;11702;50.856;4.348;2022-07-29T02:58:38;7.30;;;2.25;;
23068;SDS011;11702;50.856;4.348;2022-07-29T03:01:19;4.40;;;2.20;;
23068;SDS011;11702;50.856;4.348;2022-07-29T03:03:47;3.47;;;1.85;;
23068;SDS011;11702;50.856;4.348;2022-07-29T03:06:19;4.38;;;1.98;;
23068;SDS011;11702;50.856;4.348;2022-07-29T03:08:47;4.53;;;2.20;;
23068;SDS011;11702;50.856;4.348;2022-07-29T03:11:14;6.53;;;2.58;;
23068;SDS011;11702;50.856;4.348;2022-07-29T03:13:41;7.32;;;1.92;;
23068;SDS011;11702;50.856;4.348;2022-07-29T03:16:07;8.75;;;2.22;;
23068;SDS011;11702;50.856;4.348;2022-07-29T03:18:34;9.50;;;2.42;;
23068;SDS011;11702;50.856;4.348;2022-07-29T03:21:01;8.60;;;2.53;;
23068;SDS011;11702;50.856;4.348;2022-07-29T03:23:28;5.03;;;2.08;;
23068;SDS011;11702;50.856;4.348;2022-07-29T03:25:54;3.70;;;2.30;;
23068;SDS011;11702;50.856;4.348;2022-07-29T03:28:20;4.53;;;2.28;;
23068;SDS011;11702;50.856;4.348;2022-07-29T03:30:46;7.38;;;2.67;;
23068;SDS011;11702;50.856;4.348;2022-07-29T03:33:12;6.80;;;2.60;;
23068;SDS011;11702;50.856;4.348;2022-07-29T03:35:37;10.77;;;2.40;;
23068;SDS011;11702;50.856;4.348;2022-07-29T03:38:03;6.55;;;2.40;;
23068;SDS011;11702;50.856;4.348;2022-07-29T03:40:33;6.32;;;2.40;;
23068;SDS011;11702;50.856;4.348;2022-07-29T03:43:03;12.32;;;2.40;;
23068;SDS011;11702;50.856;4.348;2022-07-29T03:45:31;8.57;;;2.60;;
23068;SDS011;11702;50.856;4.348;2022-07-29T03:48:03;4.68;;;2.80;;
23068;SDS011;11702;50.856;4.348;2022-07-29T03:50:32;6.50;;;2.40;;
23068;SDS011;11702;50.856;4.348;2022-07-29T03:52:58;5.38;;;2.45;;
23068;SDS011;11702;50.856;4.348;2022-07-29T03:55:26;9.82;;;2.60;;
23068;SDS011;11702;50.856;4.348;2022-07-29T03:57:53;5.70;;;2.70;;
23068;SDS011;11702;50.856;4.348;2022-07-29T04:00:22;4.47;;;2.50;;
23068;SDS011;11702;50.856;4.348;2022-07-29T04:02:49;7.57;;;2.60;;
23068;SDS011;11702;50.856;4.348;2022-07-29T04:05:16;8.27;;;2.85;;
23068;SDS011;11702;50.856;4.348;2022-07-29T04:07:46;8.85;;;2.95;;
23068;SDS011;11702;50.856;4.348;2022-07-29T04:10:12;5.18;;;2.65;;
23068;SDS011;11702;50.856;4.348;2022-07-29T04:12:40;5.05;;;2.55;;
23068;SDS011;11702;50.856;4.348;2022-07-29T04:15:06;8.90;;;3.00;;
23068;SDS011;11702;50.856;4.348;2022-07-29T04:17:32;6.43;;;2.58;;
23068;SDS011;11702;50.856;4.348;2022-07-29T04:19:58;8.20;;;2.60;;
23068;SDS011;11702;50.856;4.348;2022-07-29T04:22:24;7.03;;;2.90;;
23068;SDS011;11702;50.856;4.348;2022-07-29T04:24:50;9.25;;;3.10;;
23068;SDS011;11702;50.856;4.348;2022-07-29T04:27:15;8.15;;;2.75;;
23068;SDS011;11702;50.856;4.348;2022-07-29T04:29:41;7.03;;;3.38;;
23068;SDS011;11702;50.856;4.348;2022-07-29T04:32:07;7.80;;;3.20;;
23068;SDS011;11702;50.856;4.348;2022-07-29T04:34:32;7.82;;;3.05;;
23068;SDS011;11702;50.856;4.348;2022-07-29T04:36:58;6.93;;;3.22;;
23068;SDS011;11702;50.856;4.348;2022-07-29T04:39:25;9.60;;;3.83;;
23068;SDS011;11702;50.856;4.348;2022-07-29T04:41:51;6.72;;;3.17;;
23068;SDS011;11702;50.856;4.348;2022-07-29T04:44:17;6.60;;;3.53;;
23068;SDS011;11702;50.856;4.348;2022-07-29T04:46:44;8.52;;;3.03;;
23068;SDS011;11702;50.856;4.348;2022-07-29T04:49:10;14.75;;;3.60;;
23068;SDS011;11702;50.856;4.348;2022-07-29T04:51:37;5.47;;;3.17;;
23068;SDS011;11702;50.856;4.348;2022-07-29T04:54:03;7.43;;;3.10;;
23068;SDS011;11702;50.856;4.348;2022-07-29T04:56:31;7.78;;;3.15;;
23068;SDS011;11702;50.856;4.348;2022-07-29T04:59:17;7.30;;;3.08;;
23068;SDS011;11702;50.856;4.348;2022-07-29T05:01:52;10.63;;;3.20;;
23068;SDS011;11702;50.856;4.348;2022-07-29T05:04:37;7.60;;;2.88;;
23068;SDS011;11702;50.856;4.348;2022-07-29T05:07:03;5.68;;;2.63;;
23068;SDS011;11702;50.856;4.348;2022-07-29T05:09:29;4.90;;;2.90;;
23068;SDS011;11702;50.856;4.348;2022-07-29T05:11:55;9.38;;;3.25;;
23068;SDS011;11702;50.856;4.348;2022-07-29T05:14:20;5.85;;;2.67;;
23068;SDS011;11702;50.856;4.348;2022-07-29T05:16:46;5.00;;;2.85;;
23068;SDS011;11702;50.856;4.348;2022-07-29T05:19:12;5.88;;;2.90;;
23068;SDS011;11702;50.856;4.348;2022-07-29T05:21:38;8.75;;;2.60;;
23068;SDS011;11702;50.856;4.348;2022-07-29T05:24:04;6.72;;;3.08;;
23068;SDS011;11702;50.856;4.348;2022-07-29T05:26:29;10.13;;;3.10;;
23068;SDS011;11702;50.856;4.348;2022-07-29T05:28:55;5.72;;;3.05;;
23068;SDS011;11702;50.856;4.348;2022-07-29T05:31:21;31.02;;;3.00;;
23068;SDS011;11702;50.856;4.348;2022-07-29T05:33:47;5.00;;;3.25;;
23068;SDS011;11702;50.856;4.348;2022-07-29T05:36:13;7.93;;;2.90;;
23068;SDS011;11702;50.856;4.348;2022-07-29T05:38:38;5.45;;;3.03;;
23068;SDS011;11702;50.856;4.348;2022-07-29T05:41:04;5.68;;;3.25;;
23068;SDS011;11702;50.856;4.348;2022-07-29T05:43:30;9.35;;;3.30;;
23068;SDS011;11702;50.856;4.348;2022-07-29T05:45:56;8.05;;;3.33;;
23068;SDS011;11702;50.856;4.348;2022-07-29T05:48:22;10.05;;;3.08;;
23068;SDS011;11702;50.856;4.348;2022-07-29T05:50:48;9.35;;;3.70;;
23068;SDS011;11702;50.856;4.348;2022-07-29T05:53:14;5.38;;;3.22;;
23068;SDS011;11702;50.856;4.348;2022-07-29T05:55:39;6.25;;;3.65;;
23068;SDS011;11702;50.856;4.348;2022-07-29T05:58:05;4.45;;;3.17;;
23068;SDS011;11702;50.856;4.348;2022-07-29T06:00:31;9.43;;;3.50;;
23068;SDS011;11702;50.856;4.348;2022-07-29T06:02:56;9.13;;;3.38;;
23068;SDS011;11702;50.856;4.348;2022-07-29T06:05:22;6.57;;;3.42;;
23068;SDS011;11702;50.856;4.348;2022-07-29T06:07:48;8.27;;;3.60;;
23068;SDS011;11702;50.856;4.348;2022-07-29T06:10:14;10.15;;;3.20;;
23068;SDS011;11702;50.856;4.348;2022-07-29T06:12:40;9.32;;;3.40;;
23068;SDS011;11702;50.856;4.348;2022-07-29T06:15:07;8.48;;;3.20;;
23068;SDS011;11702;50.856;4.348;2022-07-29T06:17:33;8.25;;;3.17;;
23068;SDS011;11702;50.856;4.348;2022-07-29T06:19:59;10.07;;;3.30;;
23068;SDS011;11702;50.856;4.348;2022-07-29T06:22:24;11.60;;;3.28;;
23068;SDS011;11702;50.856;4.348;2022-07-29T06:24:50;14.82;;;3.20;;
23068;SDS011;11702;50.856;4.348;2022-07-29T06:27:15;7.40;;;3.50;;
23068;SDS011;11702;50.856;4.348;2022-07-29T06:29:41;10.00;;;3.05;;
23068;SDS011;11702;50.856;4.348;2022-07-29T06:32:07;6.13;;;3.50;;
23068;SDS011;11702;50.856;4.348;2022-07-29T06:34:34;8.32;;;3.25;;
23068;SDS011;11702;50.856;4.348;2022-07-29T06:37:05;10.48;;;3.30;;
23068;SDS011;11702;50.856;4.348;2022-07-29T06:39:33;7.32;;;3.42;;
23068;SDS011;11702;50.856;4.348;2022-07-29T06:42:00;6.20;;;3.25;;
23068;SDS011;11702;50.856;4.348;2022-07-29T06:44:25;8.45;;;3.13;;
23068;SDS011;11702;50.856;4.348;2022-07-29T06:46:51;7.93;;;2.97;;
23068;SDS011;11702;50.856;4.348;2022-07-29T06:49:17;6.18;;;3.13;;
23068;SDS011;11702;50.856;4.348;2022-07-29T06:51:43;8.52;;;2.90;;
23068;SDS011;11702;50.856;4.348;2022-07-29T06:54:09;11.68;;;3.22;;
23068;SDS011;11702;50.856;4.348;2022-07-29T06:56:34;10.23;;;3.70;;
23068;SDS011;11702;50.856;4.348;2022-07-29T06:59:02;8.60;;;4.28;;
23068;SDS011;11702;50.856;4.348;2022-07-29T07:01:29;7.22;;;3.70;;
23068;SDS011;11702;50.856;4.348;2022-07-29T07:03:54;8.65;;;3.55;;
23068;SDS011;11702;50.856;4.348;2022-07-29T07:06:21;6.55;;;3.80;;
23068;SDS011;11702;50.856;4.348;2022-07-29T07:08:47;10.68;;;4.10;;
23068;SDS011;11702;50.856;4.348;2022-07-29T07:11:12;12.93;;;3.58;;
23068;SDS011;11702;50.856;4.348;2022-07-29T07:13:38;8.43;;;3.85;;
23068;SDS011;11702;50.856;4.348;2022-07-29T07:16:04;13.70;;;4.22;;
23068;SDS011;11702;50.856;4.348;2022-07-29T07:18:30;5.47;;;3.30;;
23068;SDS011;11702;50.856;4.348;2022-07-29T07:20:56;7.03;;;3.47;;
23068;SDS011;11702;50.856;4.348;2022-07-29T07:23:22;13.07;;;4.15;;
23068;SDS011;11702;50.856;4.348;2022-07-29T07:25:47;5.50;;;3.50;;
23068;SDS011;11702;50.856;4.348;2022-07-29T07:28:14;8.45;;;3.58;;
23068;SDS011;11702;50.856;4.348;2022-07-29T07:30:41;7.70;;;3.47;;
23068;SDS011;11702;50.856;4.348;2022-07-29T07:33:06;9.63;;;3.42;;
23068;SDS011;11702;50.856;4.348;2022-07-29T07:35:32;9.88;;;3.97;;
23068;SDS011;11702;50.856;4.348;2022-07-29T07:37:59;9.88;;;3.55;;
23068;SDS011;11702;50.856;4.348;2022-07-29T07:40:24;7.25;;;3.78;;
23068;SDS011;11702;50.856;4.348;2022-07-29T07:42:50;12.45;;;3.15;;
23068;SDS011;11702;50.856;4.348;2022-07-29T07:45:17;14.40;;;3.35;;
23068;SDS011;11702;50.856;4.348;2022-07-29T07:47:43;13.95;;;3.30;;
23068;SDS011;11702;50.856;4.348;2022-07-29T07:50:10;6.57;;;3.22;;
23068;SDS011;11702;50.856;4.348;2022-07-29T07:52:46;7.70;;;3.00;;
23068;SDS011;11702;50.856;4.348;2022-07-29T07:55:14;12.55;;;3.45;;
23068;SDS011;11702;50.856;4.348;2022-07-29T07:57:39;7.10;;;3.42;;
23068;SDS011;11702;50.856;4.348;2022-07-29T08:00:15;8.43;;;3.60;;
23068;SDS011;11702;50.856;4.348;2022-07-29T08:02:47;7.25;;;3.15;;
23068;SDS011;11702;50.856;4.348;2022-07-29T08:05:42;5.68;;;3.13;;
23068;SDS011;11702;50.856;4.348;2022-07-29T08:08:24;7.45;;;3.22;;
23068;SDS011;11702;50.856;4.348;2022-07-29T08:10:57;6.63;;;3.28;;
23068;SDS011;11702;50.856;4.348;2022-07-29T08:13:26;6.80;;;3.28;;
23068;SDS011;11702;50.856;4.348;2022-07-29T08:15:55;6.60;;;3.53;;
23068;SDS011;11702;50.856;4.348;2022-07-29T08:18:40;9.98;;;3.08;;
23068;SDS011;11702;50.856;4.348;2022-07-29T08:21:10;6.70;;;3.38;;
23068;SDS011;11702;50.856;4.348;2022-07-29T08:23:59;5.47;;;2.60;;
23068;SDS011;11702;50.856;4.348;2022-07-29T08:26:52;6.80;;;2.30;;
23068;SDS011;11702;50.856;4.348;2022-07-29T08:29:18;11.30;;;2.92;;
23068;SDS011;11702;50.856;4.348;2022-07-29T08:31:44;6.85;;;3.05;;
23068;SDS011;11702;50.856;4.348;2022-07-29T08:34:10;10.45;;;2.70;;
23068;SDS011;11702;50.856;4.348;2022-07-29T08:36:37;6.57;;;2.67;;
23068;SDS011;11702;50.856;4.348;2022-07-29T08:39:07;10.82;;;2.80;;
23068;SDS011;11702;50.856;4.348;2022-07-29T08:41:36;8.05;;;2.58;;
23068;SDS011;11702;50.856;4.348;2022-07-29T08:44:18;6.28;;;2.42;;
23068;SDS011;11702;50.856;4.348;2022-07-29T08:46:52;4.78;;;2.45;;
23068;SDS011;11702;50.856;4.348;2022-07-29T08:49:25;7.32;;;2.85;;
23068;SDS011;11702;50.856;4.348;2022-07-29T08:52:04;11.70;;;3.45;;
23068;SDS011;11702;50.856;4.348;2022-07-29T08:54:39;4.50;;;2.40;;
23068;SDS011;11702;50.856;4.348;2022-07-29T08:57:16;5.00;;;2.47;;
23068;SDS011;11702;50.856;4.348;2022-07-29T08:59:57;6.25;;;2.67;;
23068;SDS011;11702;50.856;4.348;2022-07-29T09:02:46;4.82;;;2.47;;
23068;SDS011;11702;50.856;4.348;2022-07-29T09:05:27;5.70;;;2.60;;
23068;SDS011;11702;50.856;4.348;2022-07-29T09:07:55;7.07;;;2.63;;
23068;SDS011;11702;50.856;4.348;2022-07-29T09:10:54;4.70;;;2.33;;
23068;SDS011;11702;50.856;4.348;2022-07-29T09:13:21;4.82;;;2.50;;
23068;SDS011;11702;50.856;4.348;2022-07-29T09:15:47;6.50;;;2.45;;
23068;SDS011;11702;50.856;4.348;2022-07-29T09:18:35;3.97;;;2.35;;
23068;SDS011;11702;50.856;4.348;2022-07-29T09:21:04;6.35;;;2.80;;
23068;SDS011;11702;50.856;4.348;2022-07-29T09:24:07;5.07;;;2.53;;
23068;SDS011;11702;50.856;4.348;2022-07-29T09:27:23;6.45;;;2.95;;
23068;SDS011;11702;50.856;4.348;2022-07-29T09:30:14;5.15;;;2.72;;
23068;SDS011;11702;50.856;4.348;2022-07-29T09:32:56;5.35;;;2.80;;
23068;SDS011;11702;50.856;4.348;2022-07-29T09:35:28;7.47;;;2.80;;
23068;SDS011;11702;50.856;4.348;2022-07-29T09:37:55;8.95;;;2.65;;
23068;SDS011;11702;50.856;4.348;2022-07-29T09:40:22;7.10;;;2.67;;
23068;SDS011;11702;50.856;4.348;2022-07-29T09:43:11;8.18;;;2.55;;
23068;SDS011;11702;50.856;4.348;2022-07-29T09:45:38;4.38;;;3.35;;
23068;SDS011;11702;50.856;4.348;2022-07-29T09:48:18;8.05;;;3.10;;
23068;SDS011;11702;50.856;4.348;2022-07-29T09:54:26;6.18;;;2.70;;
23068;SDS011;11702;50.856;4.348;2022-07-29T09:58:16;5.40;;;2.15;;
23068;SDS011;11702;50.856;4.348;2022-07-29T10:00:51;7.07;;;2.78;;
23068;SDS011;11702;50.856;4.348;2022-07-29T10:03:18;6.60;;;2.63;;
23068;SDS011;11702;50.856;4.348;2022-07-29T10:05:46;5.82;;;2.22;;
23068;SDS011;11702;50.856;4.348;2022-07-29T10:08:30;3.75;;;2.08;;
23068;SDS011;11702;50.856;4.348;2022-07-29T10:11:08;7.35;;;3.22;;
23068;SDS011;11702;50.856;4.348;2022-07-29T10:13:45;6.13;;;2.22;;
23068;SDS011;11702;50.856;4.348;2022-07-29T10:16:13;6.05;;;2.58;;
23068;SDS011;11702;50.856;4.348;2022-07-29T10:18:43;3.92;;;2.30;;
23068;SDS011;11702;50.856;4.348;2022-07-29T10:21:09;8.48;;;2.05;;
23068;SDS011;11702;50.856;4.348;2022-07-29T10:23:35;7.68;;;2.83;;
23068;SDS011;11702;50.856;4.348;2022-07-29T10:26:02;9.13;;;2.60;;
23068;SDS011;11702;50.856;4.348;2022-07-29T10:28:29;5.32;;;1.70;;
23068;SDS011;11702;50.856;4.348;2022-07-29T10:31:00;6.38;;;2.13;;
23068;SDS011;11702;50.856;4.348;2022-07-29T10:36:21;8.82;;;2.00;;
23068;SDS011;11702;50.856;4.348;2022-07-29T10:39:13;8.63;;;1.80;;
23068;SDS011;11702;50.856;4.348;2022-07-29T10:44:42;6.88;;;1.98;;
23068;SDS011;11702;50.856;4.348;2022-07-29T10:47:22;8.93;;;1.92;;
23068;SDS011;11702;50.856;4.348;2022-07-29T10:49:55;10.13;;;2.58;;
23068;SDS011;11702;50.856;4.348;2022-07-29T10:52:51;7.03;;;2.10;;
23068;SDS011;11702;50.856;4.348;2022-07-29T10:55:37;4.88;;;2.88;;
23068;SDS011;11702;50.856;4.348;2022-07-29T10:58:20;5.32;;;2.55;;
23068;SDS011;11702;50.856;4.348;2022-07-29T11:00:49;6.38;;;2.88;;
23068;SDS011;11702;50.856;4.348;2022-07-29T11:06:07;5.75;;;2.97;;
23068;SDS011;11702;50.856;4.348;2022-07-29T11:08:33;4.15;;;2.60;;
23068;SDS011;11702;50.856;4.348;2022-07-29T11:16:11;5.38;;;2.58;;
23068;SDS011;11702;50.856;4.348;2022-07-29T11:19:20;4.55;;;2.65;;
23068;SDS011;11702;50.856;4.348;2022-07-29T11:21:39;4.95;;;2.50;;
23068;SDS011;11702;50.856;4.348;2022-07-29T11:24:17;9.57;;;2.97;;
23068;SDS011;11702;50.856;4.348;2022-07-29T11:26:44;7.47;;;3.00;;
23068;SDS011;11702;50.856;4.348;2022-07-29T11:31:45;6.63;;;3.15;;
23068;SDS011;11702;50.856;4.348;2022-07-29T11:39:32;8.88;;;4.03;;
23068;SDS011;11702;50.856;4.348;2022-07-29T11:45:05;6.13;;;3.00;;
23068;SDS011;11702;50.856;4.348;2022-07-29T11:50:14;7.25;;;2.63;;
23068;SDS011;11702;50.856;4.348;2022-07-29T11:52:42;4.72;;;2.58;;
23068;SDS011;11702;50.856;4.348;2022-07-29T11:55:14;8.23;;;3.53;;
23068;SDS011;11702;50.856;4.348;2022-07-29T12:00:20;7.40;;;2.83;;
23068;SDS011;11702;50.856;4.348;2022-07-29T12:02:52;6.93;;;2.42;;
23068;SDS011;11702;50.856;4.348;2022-07-29T12:05:19;7.80;;;3.63;;
23068;SDS011;11702;50.856;4.348;2022-07-29T12:07:45;11.60;;;3.50;;
23068;SDS011;11702;50.856;4.348;2022-07-29T12:10:12;8.73;;;3.30;;
23068;SDS011;11702;50.856;4.348;2022-07-29T12:12:37;9.45;;;3.33;;
23068;SDS011;11702;50.856;4.348;2022-07-29T12:15:25;9.68;;;3.80;;
23068;SDS011;11702;50.856;4.348;2022-07-29T12:17:51;7.78;;;3.58;;
23068;SDS011;11702;50.856;4.348;2022-07-29T12:20:27;9.13;;;3.47;;
23068;SDS011;11702;50.856;4.348;2022-07-29T12:22:54;10.13;;;2.83;;
23068;SDS011;11702;50.856;4.348;2022-07-29T12:25:21;12.07;;;3.47;;
23068;SDS011;11702;50.856;4.348;2022-07-29T12:27:57;7.65;;;3.13;;
23068;SDS011;11702;50.856;4.348;2022-07-29T12:30:33;12.65;;;3.03;;
23068;SDS011;11702;50.856;4.348;2022-07-29T12:33:09;8.68;;;3.53;;
23068;SDS011;11702;50.856;4.348;2022-07-29T12:35:37;7.30;;;3.40;;
23068;SDS011;11702;50.856;4.348;2022-07-29T12:38:03;5.95;;;2.78;;
23068;SDS011;11702;50.856;4.348;2022-07-29T12:40:29;8.55;;;3.33;;
23068;SDS011;11702;50.856;4.348;2022-07-29T12:43:08;6.63;;;3.20;;
23068;SDS011;11702;50.856;4.348;2022-07-29T12:45:34;7.28;;;3.30;;
23068;SDS011;11702;50.856;4.348;2022-07-29T12:48:00;5.57;;;3.05;;
23068;SDS011;11702;50.856;4.348;2022-07-29T12:50:27;6.53;;;3.00;;
23068;SDS011;11702;50.856;4.348;2022-07-29T12:52:53;8.85;;;2.80;;
23068;SDS011;11702;50.856;4.348;2022-07-29T12:55:38;10.70;;;3.15;;
23068;SDS011;11702;50.856;4.348;2022-07-29T12:58:08;5.28;;;2.33;;
23068;SDS011;11702;50.856;4.348;2022-07-29T13:00:34;6.88;;;2.33;;
23068;SDS011;11702;50.856;4.348;2022-07-29T13:03:00;8.77;;;2.50;;
23068;SDS011;11702;50.856;4.348;2022-07-29T13:05:44;9.50;;;2.90;;
23068;SDS011;11702;50.856;4.348;2022-07-29T13:08:14;5.55;;;2.40;;
23068;SDS011;11702;50.856;4.348;2022-07-29T13:10:40;7.57;;;2.60;;
23068;SDS011;11702;50.856;4.348;2022-07-29T13:13:07;5.65;;;2.63;;
23068;SDS011;11702;50.856;4.348;2022-07-29T13:15:38;4.43;;;2.30;;
23068;SDS011;11702;50.856;4.348;2022-07-29T13:18:26;12.73;;;3.30;;
23068;SDS011;11702;50.856;4.348;2022-07-29T13:20:53;11.40;;;2.40;;
23068;SDS011;11702;50.856;4.348;2022-07-29T13:23:19;13.60;;;2.72;;
23068;SDS011;11702;50.856;4.348;2022-07-29T13:25:44;6.25;;;2.42;;
23068;SDS011;11702;50.856;4.348;2022-07-29T13:28:10;5.32;;;2.20;;
23068;SDS011;11702;50.856;4.348;2022-07-29T13:30:36;6.38;;;2.35;;
23068;SDS011;11702;50.856;4.348;2022-07-29T13:33:03;3.53;;;2.00;;
23068;SDS011;11702;50.856;4.348;2022-07-29T13:35:28;10.45;;;2.50;;
23068;SDS011;11702;50.856;4.348;2022-07-29T13:37:54;7.70;;;2.28;;
23068;SDS011;11702;50.856;4.348;2022-07-29T13:40:20;5.95;;;1.90;;
23068;SDS011;11702;50.856;4.348;2022-07-29T13:42:46;2.88;;;1.90;;
23068;SDS011;11702;50.856;4.348;2022-07-29T13:45:11;4.60;;;2.03;;
23068;SDS011;11702;50.856;4.348;2022-07-29T13:47:37;4.05;;;2.15;;
23068;SDS011;11702;50.856;4.348;2022-07-29T13:50:03;5.13;;;1.88;;
23068;SDS011;11702;50.856;4.348;2022-07-29T13:52:31;9.80;;;2.53;;
23068;SDS011;11702;50.856;4.348;2022-07-29T13:54:58;6.00;;;2.17;;
23068;SDS011;11702;50.856;4.348;2022-07-29T13:57:24;6.78;;;2.42;;
23068;SDS011;11702;50.856;4.348;2022-07-29T13:59:49;4.35;;;2.10;;
23068;SDS011;11702;50.856;4.348;2022-07-29T14:02:16;7.35;;;2.10;;
23068;SDS011;11702;50.856;4.348;2022-07-29T14:04:42;6.60;;;1.90;;
23068;SDS011;11702;50.856;4.348;2022-07-29T14:07:07;6.22;;;2.17;;
23068;SDS011;11702;50.856;4.348;2022-07-29T14:09:33;5.28;;;1.75;;
23068;SDS011;11702;50.856;4.348;2022-07-29T14:11:59;7.05;;;2.30;;
23068;SDS011;11702;50.856;4.348;2022-07-29T14:14:24;8.00;;;2.53;;
23068;SDS011;11702;50.856;4.348;2022-07-29T14:16:50;6.75;;;1.92;;
23068;SDS011;11702;50.856;4.348;2022-07-29T14:19:16;5.32;;;2.25;;
23068;SDS011;11702;50.856;4.348;2022-07-29T14:21:41;4.95;;;2.03;;
23068;SDS011;11702;50.856;4.348;2022-07-29T14:24:07;3.35;;;1.85;;
23068;SDS011;11702;50.856;4.348;2022-07-29T14:26:32;8.32;;;2.47;;
23068;SDS011;11702;50.856;4.348;2022-07-29T14:28:58;4.82;;;1.90;;
23068;SDS011;11702;50.856;4.348;2022-07-29T14:31:24;5.43;;;2.25;;
23068;SDS011;11702;50.856;4.348;2022-07-29T14:33:49;3.80;;;2.03;;
23068;SDS011;11702;50.856;4.348;2022-07-29T14:36:15;2.80;;;1.77;;
23068;SDS011;11702;50.856;4.348;2022-07-29T14:38:41;5.93;;;1.95;;
23068;SDS011;11702;50.856;4.348;2022-07-29T14:41:07;3.13;;;2.05;;
23068;SDS011;11702;50.856;4.348;2022-07-29T14:43:33;7.20;;;2.35;;
23068;SDS011;11702;50.856;4.348;2022-07-29T14:46:00;9.00;;;2.80;;
23068;SDS011;11702;50.856;4.348;2022-07-29T14:48:26;7.38;;;2.08;;
23068;SDS011;11702;50.856;4.348;2022-07-29T14:50:52;6.53;;;2.10;;
23068;SDS011;11702;50.856;4.348;2022-07-29T14:53:17;5.88;;;2.10;;
23068;SDS011;11702;50.856;4.348;2022-07-29T14:55:43;5.93;;;1.95;;
23068;SDS011;11702;50.856;4.348;2022-07-29T14:58:09;7.15;;;2.10;;
23068;SDS011;11702;50.856;4.348;2022-07-29T15:00:35;5.53;;;2.20;;
23068;SDS011;11702;50.856;4.348;2022-07-29T15:03:01;5.88;;;2.00;;
23068;SDS011;11702;50.856;4.348;2022-07-29T15:05:28;4.13;;;2.05;;
23068;SDS011;11702;50.856;4.348;2022-07-29T15:08:00;4.25;;;2.42;;
23068;SDS011;11702;50.856;4.348;2022-07-29T15:10:26;8.60;;;3.20;;
23068;SDS011;11702;50.856;4.348;2022-07-29T15:12:52;4.15;;;2.30;;
23068;SDS011;11702;50.856;4.348;2022-07-29T15:15:18;13.02;;;2.40;;
23068;SDS011;11702;50.856;4.348;2022-07-29T15:17:44;6.57;;;2.53;;
23068;SDS011;11702;50.856;4.348;2022-07-29T15:20:10;6.45;;;2.25;;
23068;SDS011;11702;50.856;4.348;2022-07-29T15:22:37;5.18;;;2.10;;
23068;SDS011;11702;50.856;4.348;2022-07-29T15:25:03;6.00;;;2.42;;
23068;SDS011;11702;50.856;4.348;2022-07-29T15:27:30;6.70;;;2.38;;
23068;SDS011;11702;50.856;4.348;2022-07-29T15:29:56;4.05;;;2.53;;
23068;SDS011;11702;50.856;4.348;2022-07-29T15:32:22;3.60;;;2.30;;
23068;SDS011;11702;50.856;4.348;2022-07-29T15:34:48;8.48;;;2.72;;
23068;SDS011;11702;50.856;4.348;2022-07-29T15:37:15;7.95;;;2.90;;
23068;SDS011;11702;50.856;4.348;2022-07-29T15:39:41;6.20;;;2.50;;
23068;SDS011;11702;50.856;4.348;2022-07-29T15:42:06;4.05;;;2.33;;
23068;SDS011;11702;50.856;4.348;2022-07-29T15:44:32;8.02;;;3.55;;